createdAt,value
2022-12-23T00:01:06.061Z,0.90
2022-12-23T00:03:33.139Z,1.13
2022-12-23T00:06:00.824Z,0.73
2022-12-23T00:08:27.681Z,0.70
2022-12-23T00:10:56.789Z,1.00
2022-12-23T00:13:42.125Z,0.60
2022-12-23T00:16:13.730Z,0.70
2022-12-23T00:18:40.871Z,0.80
2022-12-23T00:21:13.771Z,0.80
2022-12-23T00:23:42.947Z,0.70
2022-12-23T00:26:24.007Z,0.73
2022-12-23T00:28:50.900Z,0.60
2022-12-23T00:31:19.396Z,0.60
2022-12-23T00:33:48.070Z,0.60
2022-12-23T00:36:18.261Z,0.53
2022-12-23T00:39:03.604Z,0.73
2022-12-23T00:41:48.885Z,0.70
2022-12-23T00:44:15.583Z,0.90
2022-12-23T00:46:42.034Z,0.50
2022-12-23T00:49:29.823Z,0.50
2022-12-23T00:51:56.182Z,0.73
2022-12-23T00:54:22.728Z,0.50
2022-12-23T00:56:49.092Z,0.67
2022-12-23T00:59:15.592Z,0.60
2022-12-23T01:02:00.764Z,0.53
2022-12-23T01:04:45.887Z,0.50
2022-12-23T01:07:12.368Z,0.60
2022-12-23T01:09:38.905Z,0.57
2022-12-23T01:12:05.568Z,0.63
2022-12-23T01:14:32.305Z,0.40
2022-12-23T01:16:58.735Z,0.40
2022-12-23T01:19:25.264Z,0.40
2022-12-23T01:21:51.685Z,0.60
2022-12-23T01:24:18.095Z,0.40
2022-12-23T01:26:44.511Z,0.50
2022-12-23T01:29:11.489Z,0.37
2022-12-23T01:31:37.988Z,0.40
2022-12-23T01:34:04.434Z,0.40
2022-12-23T01:36:30.938Z,0.70
2022-12-23T01:38:57.392Z,0.50
2022-12-23T01:41:45.590Z,0.63
2022-12-23T01:44:45.704Z,0.30
2022-12-23T01:47:17.185Z,0.33
2022-12-23T01:49:43.820Z,0.40
2022-12-23T01:52:11.809Z,0.40
2022-12-23T01:54:39.234Z,0.50
2022-12-23T01:57:05.835Z,0.43
2022-12-23T01:59:50.877Z,0.37
2022-12-23T02:02:35.920Z,0.50
2022-12-23T02:05:02.787Z,0.40
2022-12-23T02:07:47.877Z,0.70
2022-12-23T02:10:14.303Z,0.40
2022-12-23T02:13:16.083Z,0.60
2022-12-23T02:16:13.758Z,0.40
2022-12-23T02:18:56.574Z,0.47
2022-12-23T02:22:00.420Z,0.40
2022-12-23T02:24:38.977Z,0.40
2022-12-23T02:27:10.223Z,0.40
2022-12-23T02:30:11.765Z,0.47
2022-12-23T02:33:02.919Z,0.47
2022-12-23T02:35:40.650Z,0.40
2022-12-23T02:38:15.733Z,0.40
2022-12-23T02:41:27.418Z,0.50
2022-12-23T02:44:11.901Z,0.40
2022-12-23T02:46:45.645Z,0.70
2022-12-23T02:49:18.537Z,0.50
2022-12-23T02:51:50.264Z,0.40
2022-12-23T02:54:24.802Z,0.40
2022-12-23T02:56:53.943Z,0.40
2022-12-23T02:59:28.036Z,0.40
2022-12-23T03:01:55.355Z,0.63
2022-12-23T03:04:21.873Z,0.43
2022-12-23T03:07:06.960Z,0.47
2022-12-23T03:09:49.664Z,0.50
2022-12-23T03:12:30.116Z,0.60
2022-12-23T03:15:40.825Z,0.37
2022-12-23T03:18:31.356Z,0.40
2022-12-23T03:21:12.141Z,0.50
2022-12-23T03:24:03.740Z,0.50
2022-12-23T03:30:47.824Z,0.40
2022-12-23T03:33:24.878Z,0.50
2022-12-23T03:36:17.211Z,0.63
2022-12-23T03:38:46.749Z,0.40
2022-12-23T03:41:35.002Z,0.40
2022-12-23T03:44:12.830Z,0.50
2022-12-23T03:47:25.664Z,0.60
2022-12-23T03:50:04.202Z,0.50
2022-12-23T03:52:48.636Z,0.57
2022-12-23T03:55:36.416Z,0.40
2022-12-23T03:58:40.109Z,0.30
2022-12-23T04:01:19.384Z,0.50
2022-12-23T04:04:14.657Z,0.50
2022-12-23T04:06:55.255Z,0.93
2022-12-23T04:09:27.456Z,1.30
2022-12-23T04:12:00.678Z,0.50
2022-12-23T04:14:37.476Z,0.60
2022-12-23T04:17:17.948Z,0.60
2022-12-23T04:19:51.738Z,0.50
2022-12-23T04:22:22.654Z,0.40
2022-12-23T04:25:08.491Z,0.50
2022-12-23T04:27:44.144Z,0.37
2022-12-23T04:30:18.647Z,0.53
2022-12-23T04:33:05.697Z,0.50
2022-12-23T04:35:54.519Z,0.60
2022-12-23T04:38:33.676Z,0.50
2022-12-23T04:41:30.075Z,0.63
2022-12-23T04:44:00.237Z,0.70
2022-12-23T04:46:38.666Z,0.60
2022-12-23T04:49:22.383Z,0.70
2022-12-23T04:52:02.182Z,0.70
2022-12-23T04:54:45.537Z,0.60
2022-12-23T05:00:47.175Z,0.67
2022-12-23T05:03:19.343Z,1.00
2022-12-23T05:06:21.207Z,0.63
2022-12-23T05:08:55.137Z,0.60
2022-12-23T05:11:41.882Z,0.90
2022-12-23T05:14:18.733Z,0.80
2022-12-23T05:20:00.392Z,0.80
2022-12-23T05:25:40.618Z,0.70
2022-12-23T05:28:49.934Z,0.53
2022-12-23T05:31:26.063Z,0.67
2022-12-23T05:34:05.954Z,0.50
2022-12-23T05:36:43.770Z,0.47
2022-12-23T05:40:21.492Z,0.60
2022-12-23T05:46:55.144Z,0.70
2022-12-23T05:50:04.539Z,0.50
2022-12-23T05:56:10.500Z,0.60
2022-12-23T05:58:43.841Z,0.40
2022-12-23T06:02:03.568Z,0.40
2022-12-23T06:04:36.618Z,0.60
2022-12-23T06:07:11.121Z,0.57
2022-12-23T06:09:52.266Z,0.50
2022-12-23T06:12:40.814Z,0.50
2022-12-23T06:15:16.497Z,0.40
2022-12-23T06:18:12.793Z,0.50
2022-12-23T06:21:43.365Z,3.47
2022-12-23T06:24:43.245Z,0.53
2022-12-23T06:27:28.690Z,0.60
2022-12-23T06:30:48.436Z,0.63
2022-12-23T06:33:21.778Z,0.60
2022-12-23T06:45:19.164Z,0.70
2022-12-23T06:47:45.718Z,0.80
2022-12-23T06:50:12.200Z,0.50
2022-12-23T06:52:38.605Z,0.60
2022-12-23T06:55:05.547Z,0.70
2022-12-23T06:57:32.007Z,0.87
2022-12-23T06:59:58.430Z,0.80
2022-12-23T07:02:24.946Z,0.90
2022-12-23T07:04:51.496Z,0.70
2022-12-23T07:07:18.034Z,0.70
2022-12-23T07:09:44.474Z,1.13
2022-12-23T07:12:11.297Z,1.07
2022-12-23T07:14:37.709Z,0.90
2022-12-23T07:17:04.219Z,0.70
2022-12-23T07:19:30.725Z,0.90
2022-12-23T07:21:57.118Z,0.90
2022-12-23T07:24:23.508Z,0.90
2022-12-23T07:26:50.900Z,1.03
2022-12-23T07:29:17.383Z,1.30
2022-12-23T07:31:43.880Z,1.30
2022-12-23T07:34:10.362Z,1.27
2022-12-23T07:36:36.842Z,1.60
2022-12-23T07:39:03.524Z,1.60
2022-12-23T07:41:29.963Z,2.10
2022-12-23T07:43:56.352Z,1.67
2022-12-23T07:46:22.787Z,1.60
2022-12-23T07:48:49.191Z,1.63
2022-12-23T07:51:15.831Z,1.23
2022-12-23T07:53:42.246Z,1.60
2022-12-23T07:56:08.791Z,2.13
2022-12-23T07:58:35.168Z,1.97
2022-12-23T08:01:03.718Z,2.00
2022-12-23T08:03:30.502Z,2.07
2022-12-23T08:06:15.204Z,1.73
2022-12-23T08:08:44.024Z,2.40
2022-12-23T08:11:11.904Z,2.27
2022-12-23T08:13:40.481Z,2.20
2022-12-23T08:16:07.721Z,2.20
2022-12-23T08:18:37.112Z,2.10
2022-12-23T08:21:04.812Z,1.83
2022-12-23T08:23:32.093Z,1.80
2022-12-23T08:26:07.859Z,1.87
2022-12-23T08:28:35.871Z,1.87
2022-12-23T08:31:07.296Z,1.70
2022-12-23T08:33:36.330Z,1.87
2022-12-23T08:36:03.246Z,1.40
2022-12-23T08:38:29.764Z,1.50
2022-12-23T08:40:56.455Z,1.20
2022-12-23T08:43:22.934Z,1.17
2022-12-23T08:45:49.627Z,1.03
2022-12-23T08:48:16.262Z,1.20
2022-12-23T08:50:44.670Z,1.33
2022-12-23T08:53:12.036Z,0.90
2022-12-23T08:55:44.339Z,1.20
2022-12-23T08:58:11.888Z,1.00
2022-12-23T09:00:38.949Z,1.10
2022-12-23T09:03:05.724Z,1.50
2022-12-23T09:05:33.047Z,1.40
2022-12-23T09:07:59.977Z,1.10
2022-12-23T09:10:26.518Z,1.13
2022-12-23T09:12:52.934Z,1.40
2022-12-23T09:15:19.568Z,1.40
2022-12-23T09:17:46.037Z,1.67
2022-12-23T09:20:12.785Z,1.50
2022-12-23T09:22:39.868Z,1.33
2022-12-23T09:25:06.377Z,1.23
2022-12-23T09:27:32.754Z,1.47
2022-12-23T09:29:59.202Z,1.50
2022-12-23T09:32:25.629Z,2.00
2022-12-23T09:34:52.071Z,1.40
2022-12-23T09:37:18.658Z,1.90
2022-12-23T09:39:45.167Z,1.70
2022-12-23T09:42:25.275Z,1.93
2022-12-23T09:45:20.975Z,2.97
2022-12-23T09:47:48.253Z,2.10
2022-12-23T09:50:23.548Z,1.97
2022-12-23T09:53:08.474Z,2.10
2022-12-23T09:55:54.057Z,1.87
2022-12-23T09:58:25.858Z,1.53
2022-12-23T10:01:05.310Z,2.00
2022-12-23T10:03:57.956Z,1.50
2022-12-23T10:06:28.645Z,1.53
2022-12-23T10:09:02.448Z,1.33
2022-12-23T10:11:33.628Z,2.20
2022-12-23T10:14:14.677Z,1.47
2022-12-23T10:16:47.100Z,1.27
2022-12-23T10:19:21.054Z,1.43
2022-12-23T10:21:52.389Z,1.53
2022-12-23T10:24:21.413Z,1.53
2022-12-23T10:27:01.259Z,1.57
2022-12-23T10:29:32.405Z,1.80
2022-12-23T10:32:17.120Z,2.10
2022-12-23T10:35:41.080Z,1.50
2022-12-23T10:38:40.731Z,1.50
2022-12-23T10:41:30.444Z,2.00
2022-12-23T10:44:07.062Z,1.77
2022-12-23T10:46:52.728Z,2.40
2022-12-23T10:49:52.960Z,2.43
2022-12-23T10:52:27.407Z,2.33
2022-12-23T10:54:53.864Z,2.07
2022-12-23T10:57:20.785Z,3.00
2022-12-23T10:59:47.368Z,3.63
2022-12-23T11:02:14.179Z,3.57
2022-12-23T11:04:45.339Z,2.93
2022-12-23T11:07:44.003Z,2.53
2022-12-23T11:10:32.975Z,2.93
2022-12-23T11:13:00.649Z,2.80
2022-12-23T11:15:28.903Z,2.83
2022-12-23T11:18:16.381Z,3.00
2022-12-23T11:20:45.713Z,3.27
2022-12-23T11:23:35.009Z,3.13
2022-12-23T11:26:06.156Z,3.00
2022-12-23T11:28:35.436Z,2.90
2022-12-23T11:31:14.393Z,2.70
2022-12-23T11:33:59.766Z,2.53
2022-12-23T11:36:28.810Z,2.70
2022-12-23T11:39:10.374Z,2.60
2022-12-23T11:41:40.430Z,2.43
2022-12-23T11:44:24.124Z,2.13
2022-12-23T11:46:50.723Z,2.70
2022-12-23T11:49:22.635Z,2.57
2022-12-23T11:52:01.798Z,2.97
2022-12-23T11:54:29.266Z,3.63
2022-12-23T11:56:56.879Z,3.27
2022-12-23T11:59:28.683Z,2.77
2022-12-23T12:01:58.816Z,2.20
2022-12-23T12:04:26.770Z,1.37
2022-12-23T12:06:56.674Z,1.70
2022-12-23T12:09:24.726Z,1.47
2022-12-23T12:12:07.133Z,1.53
2022-12-23T12:14:42.921Z,1.70
2022-12-23T12:17:32.273Z,1.80
2022-12-23T12:20:11.992Z,2.03
2022-12-23T12:22:44.347Z,1.60
2022-12-23T12:25:19.332Z,1.90
2022-12-23T12:27:54.377Z,2.27
2022-12-23T12:30:21.569Z,2.80
2022-12-23T12:32:48.004Z,3.33
2022-12-23T12:35:37.656Z,3.23
2022-12-23T12:38:17.902Z,2.47
2022-12-23T12:40:51.081Z,2.43
2022-12-23T12:43:40.156Z,2.20
2022-12-23T12:46:06.594Z,2.30
2022-12-23T12:48:47.952Z,2.30
2022-12-23T12:51:26.006Z,2.17
2022-12-23T12:54:15.164Z,2.07
2022-12-23T12:56:48.649Z,2.20
2022-12-23T12:59:19.740Z,1.40
2022-12-23T13:02:13.381Z,1.80
2022-12-23T13:05:00.878Z,1.60
2022-12-23T13:07:52.527Z,1.93
2022-12-23T13:10:34.690Z,1.43
2022-12-23T13:13:07.047Z,1.13
2022-12-23T13:15:47.225Z,1.40
2022-12-23T13:18:27.725Z,1.47
2022-12-23T13:21:03.181Z,1.20
2022-12-23T13:23:46.654Z,1.30
2022-12-23T13:26:23.511Z,1.43
2022-12-23T13:29:21.490Z,1.37
2022-12-23T13:32:02.801Z,1.10
2022-12-23T13:34:53.156Z,1.50
2022-12-23T13:37:36.094Z,1.20
2022-12-23T13:40:26.267Z,1.33
2022-12-23T13:42:56.791Z,1.10
2022-12-23T13:45:27.941Z,1.40
2022-12-23T13:48:15.155Z,1.30
2022-12-23T13:50:57.083Z,1.30
2022-12-23T13:53:47.385Z,1.17
2022-12-23T13:56:24.056Z,1.37
2022-12-23T13:58:51.664Z,1.17
2022-12-23T14:01:18.037Z,1.37
2022-12-23T14:03:44.790Z,1.27
2022-12-23T14:06:23.567Z,1.37
2022-12-23T14:08:51.217Z,1.20
2022-12-23T14:11:31.016Z,1.03
2022-12-23T14:14:02.186Z,1.27
2022-12-23T14:17:16.233Z,1.40
2022-12-23T14:20:23.598Z,1.50
2022-12-23T14:23:07.093Z,1.27
2022-12-23T14:25:59.608Z,1.50
2022-12-23T14:28:50.448Z,1.20
2022-12-23T14:31:53.854Z,1.57
2022-12-23T14:34:20.272Z,1.33
2022-12-23T14:37:20.588Z,1.30
2022-12-23T14:39:47.828Z,1.33
2022-12-23T14:42:34.157Z,1.37
2022-12-23T14:45:35.371Z,1.30
2022-12-23T14:48:23.668Z,1.23
2022-12-23T14:51:00.735Z,1.30
2022-12-23T14:53:32.261Z,1.07
2022-12-23T14:56:32.559Z,1.20
2022-12-23T14:59:23.686Z,1.20
2022-12-23T15:01:53.853Z,1.10
2022-12-23T15:04:34.033Z,1.20
2022-12-23T15:07:06.121Z,1.23
2022-12-23T15:09:47.280Z,1.30
2022-12-23T15:12:18.657Z,0.97
2022-12-23T15:14:50.885Z,1.10
2022-12-23T15:17:32.880Z,1.63
2022-12-23T15:20:18.461Z,1.30
2022-12-23T15:22:45.794Z,1.37
2022-12-23T15:25:39.265Z,1.33
2022-12-23T15:28:06.192Z,1.20
2022-12-23T15:30:36.456Z,1.33
2022-12-23T15:33:35.419Z,1.20
2022-12-23T15:36:39.189Z,1.20
2022-12-23T15:39:33.461Z,1.20
2022-12-23T15:42:17.397Z,1.17
2022-12-23T15:44:47.477Z,0.97
2022-12-23T15:47:50.733Z,1.60
2022-12-23T15:51:12.849Z,1.50
2022-12-23T15:53:58.049Z,1.53
2022-12-23T16:00:29.332Z,1.23
2022-12-23T16:03:08.943Z,1.70
2022-12-23T16:06:08.259Z,1.40
2022-12-23T16:09:08.308Z,1.00
2022-12-23T16:15:56.647Z,1.10
2022-12-23T16:21:49.283Z,1.20
2022-12-23T16:24:53.964Z,1.00
2022-12-23T16:33:58.341Z,1.00
2022-12-23T16:36:31.247Z,0.83
2022-12-23T16:39:24.183Z,1.00
2022-12-23T16:41:59.761Z,0.70
2022-12-23T16:44:35.785Z,1.10
2022-12-23T16:47:20.028Z,0.70
2022-12-23T16:50:11.982Z,0.93
2022-12-23T16:52:45.805Z,1.10
2022-12-23T16:55:22.572Z,1.10
2022-12-23T17:02:29.051Z,1.10
2022-12-23T17:05:14.713Z,1.00
2022-12-23T17:08:08.768Z,0.90
2022-12-23T17:10:59.067Z,0.90
2022-12-23T17:14:15.257Z,1.00
2022-12-23T17:20:51.931Z,0.80
2022-12-23T17:23:48.358Z,1.00
2022-12-23T17:26:25.490Z,1.07
2022-12-23T17:29:04.488Z,0.87
2022-12-23T17:31:50.908Z,0.93
2022-12-23T17:34:39.010Z,1.00
2022-12-23T17:37:29.013Z,0.90
2022-12-23T17:43:38.501Z,0.70
2022-12-23T17:46:20.163Z,1.10
2022-12-23T17:49:06.358Z,0.90
2022-12-23T17:51:43.893Z,1.10
2022-12-23T17:54:47.103Z,1.10
2022-12-23T18:02:00.542Z,1.80
2022-12-23T18:04:42.105Z,1.70
2022-12-23T18:10:13.322Z,1.87
2022-12-23T18:13:04.835Z,1.37
2022-12-23T18:15:43.705Z,1.70
2022-12-23T18:21:53.647Z,1.20
2022-12-23T18:27:41.741Z,1.03
2022-12-23T18:33:31.190Z,0.50
2022-12-23T18:36:38.593Z,0.63
2022-12-23T18:39:22.724Z,0.80
2022-12-23T18:43:30.069Z,0.50
2022-12-23T18:50:30.654Z,0.40
2022-12-23T18:56:49.348Z,0.47
2022-12-23T18:59:48.764Z,0.60
2022-12-23T19:02:24.952Z,0.60
2022-12-23T19:05:11.379Z,0.90
2022-12-23T19:08:03.608Z,0.60
2022-12-23T19:13:04.910Z,0.43
2022-12-23T19:15:31.859Z,0.70
2022-12-23T19:17:58.251Z,0.50
2022-12-23T19:20:24.737Z,0.60
2022-12-23T19:22:51.085Z,0.50
2022-12-23T19:25:18.812Z,0.87
2022-12-23T19:27:45.986Z,0.70
2022-12-23T19:30:16.321Z,0.40
2022-12-23T19:32:43.248Z,0.30
2022-12-23T19:35:14.710Z,0.30
2022-12-23T19:37:42.079Z,0.40
2022-12-23T19:40:09.337Z,0.50
2022-12-23T19:42:39.409Z,0.50
2022-12-23T19:45:08.742Z,0.40
2022-12-23T19:47:35.822Z,0.40
2022-12-23T19:50:02.396Z,0.70
2022-12-23T19:52:28.789Z,0.50
2022-12-23T19:54:55.359Z,0.40
2022-12-23T19:57:21.982Z,0.60
2022-12-23T19:59:48.438Z,0.80
2022-12-23T20:02:16.046Z,0.70
2022-12-23T20:04:43.236Z,0.70
2022-12-23T20:07:10.333Z,0.60
2022-12-23T20:09:37.009Z,0.60
2022-12-23T20:12:03.974Z,0.70
2022-12-23T20:14:34.075Z,1.63
2022-12-23T20:17:00.903Z,1.40
2022-12-23T20:19:27.640Z,1.70
2022-12-23T20:21:54.075Z,1.23
2022-12-23T20:24:20.497Z,0.57
2022-12-23T20:26:47.488Z,1.40
2022-12-23T20:29:14.355Z,0.53
2022-12-23T20:31:41.390Z,1.70
2022-12-23T20:34:10.900Z,0.97
2022-12-23T20:36:38.207Z,0.70
2022-12-23T20:39:05.084Z,1.00
2022-12-23T20:41:32.917Z,0.90
2022-12-23T20:46:46.473Z,0.80
2022-12-23T20:49:13.076Z,0.70
2022-12-23T20:51:39.453Z,0.80
2022-12-23T20:54:05.865Z,0.93
2022-12-23T20:56:32.317Z,0.90
2022-12-23T20:59:00.134Z,0.80
2022-12-23T21:01:33.321Z,0.70
2022-12-23T21:04:02.350Z,0.50
2022-12-23T21:06:30.814Z,0.50
2022-12-23T21:08:59.428Z,0.83
2022-12-23T21:11:30.675Z,0.70
2022-12-23T21:14:01.206Z,0.60
2022-12-23T21:16:33.413Z,0.87
2022-12-23T21:18:59.977Z,0.70
2022-12-23T21:21:27.780Z,0.83
2022-12-23T21:23:55.903Z,0.57
2022-12-23T21:26:24.689Z,1.10
2022-12-23T21:28:52.468Z,0.80
2022-12-23T21:31:21.678Z,0.60
2022-12-23T21:33:50.100Z,1.03
2022-12-23T21:36:20.494Z,0.83
2022-12-23T21:38:48.717Z,0.60
2022-12-23T21:41:20.131Z,0.90
2022-12-23T21:43:46.825Z,1.03
2022-12-23T21:46:16.077Z,0.60
2022-12-23T21:48:42.840Z,1.00
2022-12-23T21:51:13.517Z,0.93
2022-12-23T21:53:40.840Z,0.70
2022-12-23T21:56:13.292Z,1.00
2022-12-23T21:58:40.545Z,1.03
2022-12-23T22:01:13.388Z,0.97
2022-12-23T22:03:40.227Z,1.20
2022-12-23T22:06:15.379Z,0.80
2022-12-23T22:08:42.849Z,1.00
2022-12-23T22:11:18.393Z,0.83
2022-12-23T22:13:45.337Z,1.20
2022-12-23T22:16:14.072Z,0.97
2022-12-23T22:18:41.005Z,1.10
2022-12-23T22:21:09.604Z,1.23
2022-12-23T22:23:37.186Z,0.87
2022-12-23T22:26:04.686Z,0.97
2022-12-23T22:28:32.619Z,0.93
2022-12-23T22:31:04.122Z,1.00
2022-12-23T22:33:31.615Z,1.00
2022-12-23T22:35:58.247Z,1.47
2022-12-23T22:38:26.216Z,1.03
2022-12-23T22:40:53.389Z,1.20
2022-12-23T22:43:20.587Z,1.00
2022-12-23T22:45:47.281Z,0.93
2022-12-23T22:48:13.819Z,1.10
2022-12-23T22:50:40.235Z,1.07
2022-12-23T22:53:06.827Z,1.23
2022-12-23T22:55:33.273Z,1.53
2022-12-23T22:57:59.660Z,1.20
2022-12-23T23:00:26.106Z,1.67
2022-12-23T23:02:52.541Z,1.40
2022-12-23T23:05:19.703Z,0.93
2022-12-23T23:07:46.148Z,1.13
2022-12-23T23:10:12.615Z,1.00
2022-12-23T23:12:39.027Z,0.97
2022-12-23T23:15:05.923Z,1.33
2022-12-23T23:17:32.352Z,1.43
2022-12-23T23:19:58.857Z,1.10
2022-12-23T23:22:25.447Z,1.27
2022-12-23T23:24:52.508Z,1.37
2022-12-23T23:27:19.501Z,1.50
2022-12-23T23:29:45.976Z,1.13
2022-12-23T23:32:12.576Z,1.33
2022-12-23T23:34:40.524Z,1.30
2022-12-23T23:37:06.906Z,1.30
2022-12-23T23:39:33.286Z,1.67
2022-12-23T23:41:59.673Z,1.90
2022-12-23T23:44:26.123Z,1.97
2022-12-23T23:46:52.565Z,1.63
2022-12-23T23:49:20.703Z,1.53
2022-12-23T23:51:47.172Z,1.03
2022-12-23T23:54:13.556Z,1.30
2022-12-23T23:56:40.069Z,0.90
2022-12-23T23:59:07.942Z,1.30
